sensor_id;sensor_type;location;lat;lon;timestamp;pressure;altitude;pressure_sealevel;temperature;humidity
7524;BME280;3803;51.666;7.630;2023-07-13T00:00:13;100819.34;;;18.06;60.30
7524;BME280;3803;51.666;7.630;2023-07-13T00:00:36;100824.66;;;18.03;60.55
7524;BME280;3803;51.666;7.630;2023-07-13T00:00:57;100825.53;;;18.03;60.48
7524;BME280;3803;51.666;7.630;2023-07-13T00:01:18;100817.59;;;17.99;60.31
7524;BME280;3803;51.666;7.630;2023-07-13T00:01:38;100815.84;;;17.98;60.49
7524;BME280;3803;51.666;7.630;2023-07-13T00:01:59;100817.63;;;17.97;60.27
7524;BME280;3803;51.666;7.630;2023-07-13T00:02:20;100822.03;;;17.98;60.38
7524;BME280;3803;51.666;7.630;2023-07-13T00:02:41;100807.97;;;17.91;60.53
7524;BME280;3803;51.666;7.630;2023-07-13T00:03:03;100816.75;;;17.92;60.52
7524;BME280;3803;51.666;7.630;2023-07-13T00:03:23;100821.16;;;17.93;60.58
7524;BME280;3803;51.666;7.630;2023-07-13T00:03:44;100825.53;;;17.94;60.54
7524;BME280;3803;51.666;7.630;2023-07-13T00:04:05;100831.72;;;17.96;60.52
7524;BME280;3803;51.666;7.630;2023-07-13T00:04:26;100818.50;;;17.93;60.45
7524;BME280;3803;51.666;7.630;2023-07-13T00:04:46;100816.78;;;17.89;60.58
7524;BME280;3803;51.666;7.630;2023-07-13T00:05:07;100833.47;;;17.95;60.51
7524;BME280;3803;51.666;7.630;2023-07-13T00:05:28;100835.22;;;17.92;60.47
7524;BME280;3803;51.666;7.630;2023-07-13T00:05:58;100830.81;;;17.89;60.56
7524;BME280;3803;51.666;7.630;2023-07-13T00:06:19;100834.38;;;17.90;60.66
7524;BME280;3803;51.666;7.630;2023-07-13T00:06:40;100827.31;;;17.86;60.58
7524;BME280;3803;51.666;7.630;2023-07-13T00:07:05;100825.56;;;17.85;60.53
7524;BME280;3803;51.666;7.630;2023-07-13T00:07:25;100832.59;;;17.83;60.76
7524;BME280;3803;51.666;7.630;2023-07-13T00:07:46;100832.59;;;17.89;60.66
7524;BME280;3803;51.666;7.630;2023-07-13T00:08:07;100827.34;;;17.84;60.65
7524;BME280;3803;51.666;7.630;2023-07-13T00:08:31;100817.66;;;17.86;60.44
7524;BME280;3803;51.666;7.630;2023-07-13T00:08:53;100828.19;;;17.89;60.34
7524;BME280;3803;51.666;7.630;2023-07-13T00:09:15;100836.97;;;17.93;60.45
7524;BME280;3803;51.666;7.630;2023-07-13T00:09:38;100836.97;;;17.93;60.64
7524;BME280;3803;51.666;7.630;2023-07-13T00:09:59;100836.13;;;17.88;60.44
7524;BME280;3803;51.666;7.630;2023-07-13T00:10:20;100832.59;;;17.86;60.68
7524;BME280;3803;51.666;7.630;2023-07-13T00:10:42;100830.84;;;17.85;60.58
7524;BME280;3803;51.666;7.630;2023-07-13T00:11:02;100832.63;;;17.84;60.93
7524;BME280;3803;51.666;7.630;2023-07-13T00:11:23;100837.88;;;17.86;60.75
7524;BME280;3803;51.666;7.630;2023-07-13T00:11:44;100832.59;;;17.83;60.78
7524;BME280;3803;51.666;7.630;2023-07-13T00:12:23;100834.38;;;17.84;60.93
7524;BME280;3803;51.666;7.630;2023-07-13T00:12:44;100840.53;;;17.87;60.74
7524;BME280;3803;51.666;7.630;2023-07-13T00:13:05;100836.13;;;17.85;60.64
7524;BME280;3803;51.666;7.630;2023-07-13T00:13:26;100837.88;;;17.86;60.78
7524;BME280;3803;51.666;7.630;2023-07-13T00:13:46;100845.81;;;17.89;60.69
7524;BME280;3803;51.666;7.630;2023-07-13T00:14:07;100849.31;;;17.91;60.91
7524;BME280;3803;51.666;7.630;2023-07-13T00:14:29;100842.28;;;17.88;60.75
7524;BME280;3803;51.666;7.630;2023-07-13T00:14:49;100839.66;;;17.90;60.59
7524;BME280;3803;51.666;7.630;2023-07-13T00:15:16;100844.03;;;17.92;60.43
7524;BME280;3803;51.666;7.630;2023-07-13T00:15:37;100844.03;;;17.97;60.54
7524;BME280;3803;51.666;7.630;2023-07-13T00:15:58;100842.28;;;18.01;60.36
7524;BME280;3803;51.666;7.630;2023-07-13T00:16:19;100851.03;;;18.06;60.25
7524;BME280;3803;51.666;7.630;2023-07-13T00:16:40;100847.53;;;18.05;60.05
7524;BME280;3803;51.666;7.630;2023-07-13T00:17:12;100848.41;;;18.07;60.05
7524;BME280;3803;51.666;7.630;2023-07-13T00:17:33;100852.81;;;18.12;60.12
7524;BME280;3803;51.666;7.630;2023-07-13T00:17:55;100841.34;;;18.09;59.88
7524;BME280;3803;51.666;7.630;2023-07-13T00:18:16;100838.72;;;18.11;59.81
7524;BME280;3803;51.666;7.630;2023-07-13T00:18:37;100851.03;;;18.14;59.87
7524;BME280;3803;51.666;7.630;2023-07-13T00:18:58;100852.81;;;18.18;59.70
7524;BME280;3803;51.666;7.630;2023-07-13T00:19:21;100839.63;;;18.12;59.84
7524;BME280;3803;51.666;7.630;2023-07-13T00:19:41;100844.03;;;18.19;59.59
7524;BME280;3803;51.666;7.630;2023-07-13T00:20:03;100848.41;;;18.23;59.72
7524;BME280;3803;51.666;7.630;2023-07-13T00:20:24;100829.91;;;18.14;59.65
7524;BME280;3803;51.666;7.630;2023-07-13T00:20:45;100838.75;;;18.19;59.75
7524;BME280;3803;51.666;7.630;2023-07-13T00:21:06;100846.63;;;18.25;59.52
7524;BME280;3803;51.666;7.630;2023-07-13T00:21:27;100836.09;;;18.19;59.62
7524;BME280;3803;51.666;7.630;2023-07-13T00:21:48;100834.34;;;18.21;59.65
7524;BME280;3803;51.666;7.630;2023-07-13T00:22:09;100838.72;;;18.25;59.62
7524;BME280;3803;51.666;7.630;2023-07-13T00:22:29;100838.72;;;18.28;59.63
7524;BME280;3803;51.666;7.630;2023-07-13T00:22:52;100830.78;;;18.28;59.45
7524;BME280;3803;51.666;7.630;2023-07-13T00:23:14;100837.81;;;18.26;59.48
7524;BME280;3803;51.666;7.630;2023-07-13T00:23:38;100850.16;;;18.27;59.50
7524;BME280;3803;51.666;7.630;2023-07-13T00:23:58;100836.94;;;18.22;59.66
7524;BME280;3803;51.666;7.630;2023-07-13T00:24:21;100839.63;;;18.21;59.50
7524;BME280;3803;51.666;7.630;2023-07-13T00:24:44;100846.66;;;18.22;59.53
7524;BME280;3803;51.666;7.630;2023-07-13T00:25:05;100844.03;;;18.17;59.70
7524;BME280;3803;51.666;7.630;2023-07-13T00:25:26;100836.97;;;18.12;59.90
7524;BME280;3803;51.666;7.630;2023-07-13T00:25:48;100838.75;;;18.08;59.93
7524;BME280;3803;51.666;7.630;2023-07-13T00:26:12;100844.91;;;18.12;59.83
7524;BME280;3803;51.666;7.630;2023-07-13T00:26:33;100846.63;;;18.09;59.97
7524;BME280;3803;51.666;7.630;2023-07-13T00:26:54;100844.91;;;18.05;59.92
7524;BME280;3803;51.666;7.630;2023-07-13T00:27:15;100843.16;;;18.04;60.25
7524;BME280;3803;51.666;7.630;2023-07-13T00:27:35;100837.84;;;18.03;59.99
7524;BME280;3803;51.666;7.630;2023-07-13T00:27:56;100840.50;;;17.97;60.35
7524;BME280;3803;51.666;7.630;2023-07-13T00:28:17;100834.34;;;17.96;60.19
7524;BME280;3803;51.666;7.630;2023-07-13T00:28:39;100836.13;;;17.97;60.28
7524;BME280;3803;51.666;7.630;2023-07-13T00:29:00;100836.13;;;17.92;60.28
7524;BME280;3803;51.666;7.630;2023-07-13T00:29:23;100840.50;;;17.98;60.42
7524;BME280;3803;51.666;7.630;2023-07-13T00:29:44;100837.88;;;17.95;60.26
7524;BME280;3803;51.666;7.630;2023-07-13T00:30:06;100843.16;;;17.92;60.46
7524;BME280;3803;51.666;7.630;2023-07-13T00:30:27;100840.53;;;17.89;60.58
7524;BME280;3803;51.666;7.630;2023-07-13T00:30:48;100846.69;;;17.91;60.56
7524;BME280;3803;51.666;7.630;2023-07-13T00:31:10;100844.91;;;17.90;60.76
7524;BME280;3803;51.666;7.630;2023-07-13T00:31:31;100839.66;;;17.85;60.65
7524;BME280;3803;51.666;7.630;2023-07-13T00:31:52;100845.78;;;17.86;60.78
7524;BME280;3803;51.666;7.630;2023-07-13T00:32:12;100849.31;;;17.85;60.74
7524;BME280;3803;51.666;7.630;2023-07-13T00:32:33;100851.97;;;17.88;60.71
7524;BME280;3803;51.666;7.630;2023-07-13T00:32:54;100853.72;;;17.89;60.71
7524;BME280;3803;51.666;7.630;2023-07-13T00:33:14;100840.53;;;17.84;60.82
7524;BME280;3803;51.666;7.630;2023-07-13T00:33:35;100856.34;;;17.87;60.85
7524;BME280;3803;51.666;7.630;2023-07-13T00:33:56;100838.78;;;17.81;60.77
7524;BME280;3803;51.666;7.630;2023-07-13T00:34:17;100848.44;;;17.83;60.69
7524;BME280;3803;51.666;7.630;2023-07-13T00:34:38;100855.47;;;17.84;61.06
7524;BME280;3803;51.666;7.630;2023-07-13T00:34:59;100844.03;;;17.80;61.04
7524;BME280;3803;51.666;7.630;2023-07-13T00:35:20;100848.44;;;17.76;60.92
7524;BME280;3803;51.666;7.630;2023-07-13T00:35:41;100849.34;;;17.77;61.19
7524;BME280;3803;51.666;7.630;2023-07-13T00:36:04;100852.84;;;17.79;61.16
7524;BME280;3803;51.666;7.630;2023-07-13T00:36:25;100850.19;;;17.77;61.13
7524;BME280;3803;51.666;7.630;2023-07-13T00:36:46;100849.34;;;17.75;61.12
7524;BME280;3803;51.666;7.630;2023-07-13T00:37:07;100848.47;;;17.73;61.40
7524;BME280;3803;51.666;7.630;2023-07-13T00:37:29;100840.53;;;17.68;61.22
7524;BME280;3803;51.666;7.630;2023-07-13T00:37:51;100849.34;;;17.72;61.27
7524;BME280;3803;51.666;7.630;2023-07-13T00:38:12;100844.06;;;17.67;61.41
7524;BME280;3803;51.666;7.630;2023-07-13T00:38:33;100834.38;;;17.68;61.33
7524;BME280;3803;51.666;7.630;2023-07-13T00:38:53;100846.69;;;17.74;61.59
7524;BME280;3803;51.666;7.630;2023-07-13T00:39:14;100833.50;;;17.64;61.35
7524;BME280;3803;51.666;7.630;2023-07-13T00:39:58;100843.16;;;17.72;61.26
7524;BME280;3803;51.666;7.630;2023-07-13T00:40:19;100840.53;;;17.67;61.41
7524;BME280;3803;51.666;7.630;2023-07-13T00:40:40;100843.19;;;17.67;61.18
7524;BME280;3803;51.666;7.630;2023-07-13T00:41:01;100842.28;;;17.68;61.18
7524;BME280;3803;51.666;7.630;2023-07-13T00:41:24;100847.59;;;17.70;61.36
7524;BME280;3803;51.666;7.630;2023-07-13T00:41:45;100837.00;;;17.62;61.15
7524;BME280;3803;51.666;7.630;2023-07-13T00:42:06;100839.66;;;17.62;61.24
7524;BME280;3803;51.666;7.630;2023-07-13T00:42:32;100838.78;;;17.61;61.38
7524;BME280;3803;51.666;7.630;2023-07-13T00:42:53;100839.66;;;17.62;61.31
7524;BME280;3803;51.666;7.630;2023-07-13T00:43:20;100842.31;;;17.65;61.21
7524;BME280;3803;51.666;7.630;2023-07-13T00:43:41;100824.72;;;17.56;61.22
7524;BME280;3803;51.666;7.630;2023-07-13T00:44:04;100834.38;;;17.63;61.30
7524;BME280;3803;51.666;7.630;2023-07-13T00:44:26;100840.53;;;17.61;61.15
7524;BME280;3803;51.666;7.630;2023-07-13T00:46:41;100833.50;;;17.57;61.23
7524;BME280;3803;51.666;7.630;2023-07-13T00:47:02;100838.78;;;17.55;61.35
7524;BME280;3803;51.666;7.630;2023-07-13T00:47:46;100839.66;;;17.59;61.53
7524;BME280;3803;51.666;7.630;2023-07-13T00:48:07;100830.88;;;17.47;61.37
7524;BME280;3803;51.666;7.630;2023-07-13T00:48:32;100842.31;;;17.54;61.64
7524;BME280;3803;51.666;7.630;2023-07-13T00:48:54;100827.38;;;17.44;61.82
7524;BME280;3803;51.666;7.630;2023-07-13T00:49:19;100837.03;;;17.49;61.78
7524;BME280;3803;51.666;7.630;2023-07-13T00:49:40;100830.88;;;17.44;61.88
7524;BME280;3803;51.666;7.630;2023-07-13T00:50:02;100837.03;;;17.43;61.94
7524;BME280;3803;51.666;7.630;2023-07-13T00:50:24;100825.59;;;17.35;62.10
7524;BME280;3803;51.666;7.630;2023-07-13T00:50:53;100838.78;;;17.39;62.06
7524;BME280;3803;51.666;7.630;2023-07-13T00:51:17;100839.66;;;17.37;62.19
7524;BME280;3803;51.666;7.630;2023-07-13T00:51:47;100838.78;;;17.35;62.26
7524;BME280;3803;51.666;7.630;2023-07-13T00:52:09;100837.88;;;17.30;62.26
7524;BME280;3803;51.666;7.630;2023-07-13T00:52:30;100840.53;;;17.30;62.32
7524;BME280;3803;51.666;7.630;2023-07-13T00:52:53;100834.38;;;17.28;62.26
7524;BME280;3803;51.666;7.630;2023-07-13T00:53:15;100838.78;;;17.30;62.34
7524;BME280;3803;51.666;7.630;2023-07-13T00:53:36;100844.91;;;17.31;62.18
7524;BME280;3803;51.666;7.630;2023-07-13T00:53:59;100838.78;;;17.30;62.25
7524;BME280;3803;51.666;7.630;2023-07-13T00:54:34;100841.41;;;17.32;62.13
7524;BME280;3803;51.666;7.630;2023-07-13T00:54:56;100837.88;;;17.26;62.10
7524;BME280;3803;51.666;7.630;2023-07-13T00:55:17;100829.97;;;17.22;62.23
7524;BME280;3803;51.666;7.630;2023-07-13T00:55:39;100830.84;;;17.22;62.32
7524;BME280;3803;51.666;7.630;2023-07-13T00:56:00;100847.56;;;17.28;62.15
7524;BME280;3803;51.666;7.630;2023-07-13T00:56:22;100843.16;;;17.22;62.26
7524;BME280;3803;51.666;7.630;2023-07-13T00:56:45;100836.97;;;17.20;62.17
7524;BME280;3803;51.666;7.630;2023-07-13T00:57:09;100844.00;;;17.21;62.26
7524;BME280;3803;51.666;7.630;2023-07-13T00:57:34;100842.25;;;17.13;62.33
7524;BME280;3803;51.666;7.630;2023-07-13T00:58:04;100839.59;;;17.15;62.53
7524;BME280;3803;51.666;7.630;2023-07-13T00:58:39;100851.91;;;17.19;62.59
7524;BME280;3803;51.666;7.630;2023-07-13T00:59:02;100836.94;;;17.10;62.58
7524;BME280;3803;51.666;7.630;2023-07-13T00:59:23;100838.72;;;17.10;62.72
7524;BME280;3803;51.666;7.630;2023-07-13T00:59:47;100844.00;;;17.15;62.74
7524;BME280;3803;51.666;7.630;2023-07-13T01:00:10;100840.47;;;17.09;62.78
7524;BME280;3803;51.666;7.630;2023-07-13T01:00:35;100839.59;;;17.09;62.77
7524;BME280;3803;51.666;7.630;2023-07-13T01:00:56;100841.34;;;17.13;62.83
7524;BME280;3803;51.666;7.630;2023-07-13T01:01:18;100846.63;;;17.13;62.66
7524;BME280;3803;51.666;7.630;2023-07-13T01:01:38;100843.97;;;17.07;62.81
7524;BME280;3803;51.666;7.630;2023-07-13T01:01:59;100853.66;;;17.11;62.73
7524;BME280;3803;51.666;7.630;2023-07-13T01:02:22;100848.38;;;17.11;63.03
7524;BME280;3803;51.666;7.630;2023-07-13T01:02:45;100854.50;;;17.11;62.84
7524;BME280;3803;51.666;7.630;2023-07-13T01:03:07;100840.47;;;17.08;62.87
7524;BME280;3803;51.666;7.630;2023-07-13T01:03:27;100837.81;;;17.05;63.15
7524;BME280;3803;51.666;7.630;2023-07-13T01:03:48;100836.06;;;16.99;63.22
7524;BME280;3803;51.666;7.630;2023-07-13T01:04:09;100845.72;;;17.03;63.13
7524;BME280;3803;51.666;7.630;2023-07-13T01:04:30;100836.91;;;16.99;63.03
7524;BME280;3803;51.666;7.630;2023-07-13T01:04:51;100845.72;;;17.02;63.05
7524;BME280;3803;51.666;7.630;2023-07-13T01:05:14;100846.59;;;17.04;63.14
7524;BME280;3803;51.666;7.630;2023-07-13T01:05:35;100852.75;;;17.03;63.08
7524;BME280;3803;51.666;7.630;2023-07-13T01:05:57;100846.59;;;17.01;63.08
7524;BME280;3803;51.666;7.630;2023-07-13T01:06:18;100836.94;;;16.98;63.23
7524;BME280;3803;51.666;7.630;2023-07-13T01:06:39;100845.72;;;17.00;62.80
7524;BME280;3803;51.666;7.630;2023-07-13T01:07:00;100839.56;;;16.93;63.16
7524;BME280;3803;51.666;7.630;2023-07-13T01:07:22;100843.09;;;16.97;63.15
7524;BME280;3803;51.666;7.630;2023-07-13T01:07:44;100846.56;;;16.93;63.10
7524;BME280;3803;51.666;7.630;2023-07-13T01:08:05;100846.59;;;16.94;63.06
7524;BME280;3803;51.666;7.630;2023-07-13T01:08:27;100838.66;;;16.91;63.11
7524;BME280;3803;51.666;7.630;2023-07-13T01:08:47;100836.00;;;16.88;63.10
7524;BME280;3803;51.666;7.630;2023-07-13T01:09:08;100841.28;;;16.93;63.15
7524;BME280;3803;51.666;7.630;2023-07-13T01:09:30;100842.16;;;16.90;63.08
7524;BME280;3803;51.666;7.630;2023-07-13T01:09:51;100839.53;;;16.90;63.05
7524;BME280;3803;51.666;7.630;2023-07-13T01:10:14;100836.00;;;16.86;63.09
7524;BME280;3803;51.666;7.630;2023-07-13T01:10:35;100836.91;;;16.87;63.10
7524;BME280;3803;51.666;7.630;2023-07-13T01:10:59;100841.28;;;16.88;63.04
7524;BME280;3803;51.666;7.630;2023-07-13T01:11:21;100838.63;;;16.86;62.97
7524;BME280;3803;51.666;7.630;2023-07-13T01:11:42;100843.03;;;16.86;63.19
7524;BME280;3803;51.666;7.630;2023-07-13T01:12:03;100844.81;;;16.84;63.37
7524;BME280;3803;51.666;7.630;2023-07-13T01:12:24;100837.75;;;16.81;63.12
7524;BME280;3803;51.666;7.630;2023-07-13T01:12:45;100838.63;;;16.82;63.13
7524;BME280;3803;51.666;7.630;2023-07-13T01:13:07;100834.25;;;16.81;63.02
7524;BME280;3803;51.666;7.630;2023-07-13T01:13:28;100836.00;;;16.80;63.31
7524;BME280;3803;51.666;7.630;2023-07-13T01:13:55;100848.31;;;16.81;63.06
7524;BME280;3803;51.666;7.630;2023-07-13T01:14:15;100848.28;;;16.80;63.15
7524;BME280;3803;51.666;7.630;2023-07-13T01:14:37;100838.63;;;16.79;63.22
7524;BME280;3803;51.666;7.630;2023-07-13T01:15:00;100834.25;;;16.78;63.27
7524;BME280;3803;51.666;7.630;2023-07-13T01:15:41;100842.16;;;16.78;63.20
7524;BME280;3803;51.666;7.630;2023-07-13T01:16:15;100844.75;;;16.75;63.28
7524;BME280;3803;51.666;7.630;2023-07-13T01:16:40;100831.56;;;16.70;63.16
7524;BME280;3803;51.666;7.630;2023-07-13T01:17:01;100828.06;;;16.65;63.17
7524;BME280;3803;51.666;7.630;2023-07-13T01:17:23;100841.25;;;16.72;62.93
7524;BME280;3803;51.666;7.630;2023-07-13T01:17:44;100843.00;;;16.74;62.92
7524;BME280;3803;51.666;7.630;2023-07-13T01:18:10;100839.47;;;16.75;62.94
7524;BME280;3803;51.666;7.630;2023-07-13T01:18:32;100834.19;;;16.65;62.97
7524;BME280;3803;51.666;7.630;2023-07-13T01:18:54;100828.06;;;16.68;62.91
7524;BME280;3803;51.666;7.630;2023-07-13T01:19:39;100847.38;;;16.71;63.14
7524;BME280;3803;51.666;7.630;2023-07-13T01:20:00;100832.44;;;16.67;63.19
7524;BME280;3803;51.666;7.630;2023-07-13T01:20:21;100833.31;;;16.66;63.27
7524;BME280;3803;51.666;7.630;2023-07-13T01:21:16;100829.78;;;16.61;63.01
7524;BME280;3803;51.666;7.630;2023-07-13T01:21:39;100823.63;;;16.59;63.08
7524;BME280;3803;51.666;7.630;2023-07-13T01:22:17;100831.53;;;16.59;63.05
7524;BME280;3803;51.666;7.630;2023-07-13T01:22:38;100836.81;;;16.61;63.13
7524;BME280;3803;51.666;7.630;2023-07-13T01:22:58;100830.66;;;16.58;63.09
7524;BME280;3803;51.666;7.630;2023-07-13T01:23:20;100842.09;;;16.62;63.15
7524;BME280;3803;51.666;7.630;2023-07-13T01:23:42;100842.97;;;16.61;63.12
7524;BME280;3803;51.666;7.630;2023-07-13T01:24:04;100835.94;;;16.60;63.04
7524;BME280;3803;51.666;7.630;2023-07-13T01:24:25;100832.41;;;16.55;63.09
7524;BME280;3803;51.666;7.630;2023-07-13T01:24:47;100836.81;;;16.57;63.13
7524;BME280;3803;51.666;7.630;2023-07-13T01:25:09;100830.66;;;16.54;63.04
7524;BME280;3803;51.666;7.630;2023-07-13T01:25:30;100835.03;;;16.55;63.03
7524;BME280;3803;51.666;7.630;2023-07-13T01:25:52;100848.22;;;16.61;62.88
7524;BME280;3803;51.666;7.630;2023-07-13T01:26:13;100841.19;;;16.57;62.92
7524;BME280;3803;51.666;7.630;2023-07-13T01:26:34;100842.94;;;16.55;62.82
7524;BME280;3803;51.666;7.630;2023-07-13T01:26:55;100840.31;;;16.55;62.79
7524;BME280;3803;51.666;7.630;2023-07-13T01:27:19;100837.63;;;16.52;62.69
7524;BME280;3803;51.666;7.630;2023-07-13T01:27:40;100835.88;;;16.48;62.65
7524;BME280;3803;51.666;7.630;2023-07-13T01:28:05;100849.09;;;16.57;62.61
7524;BME280;3803;51.666;7.630;2023-07-13T01:28:28;100835.88;;;16.51;62.44
7524;BME280;3803;51.666;7.630;2023-07-13T01:28:49;100849.97;;;16.56;62.44
7524;BME280;3803;51.666;7.630;2023-07-13T01:29:09;100844.69;;;16.53;62.36
7524;BME280;3803;51.666;7.630;2023-07-13T01:29:35;100830.59;;;16.51;62.37
7524;BME280;3803;51.666;7.630;2023-07-13T01:30:01;100836.78;;;16.53;62.33
7524;BME280;3803;51.666;7.630;2023-07-13T01:30:24;100842.06;;;16.53;62.28
7524;BME280;3803;51.666;7.630;2023-07-13T01:30:46;100829.72;;;16.44;62.17
7524;BME280;3803;51.666;7.630;2023-07-13T01:31:07;100834.13;;;16.47;62.25
7524;BME280;3803;51.666;7.630;2023-07-13T01:31:29;100837.63;;;16.49;62.13
7524;BME280;3803;51.666;7.630;2023-07-13T01:31:52;100835.84;;;16.46;62.12
7524;BME280;3803;51.666;7.630;2023-07-13T01:32:16;100851.72;;;16.54;62.17
7524;BME280;3803;51.666;7.630;2023-07-13T01:32:37;100844.69;;;16.53;62.02
7524;BME280;3803;51.666;7.630;2023-07-13T01:32:58;100843.78;;;16.51;61.77
7524;BME280;3803;51.666;7.630;2023-07-13T01:33:20;100835.00;;;16.46;61.94
7524;BME280;3803;51.666;7.630;2023-07-13T01:33:41;100840.28;;;16.53;61.91
7524;BME280;3803;51.666;7.630;2023-07-13T01:34:02;100849.97;;;16.53;61.66
7524;BME280;3803;51.666;7.630;2023-07-13T01:34:23;100843.81;;;16.54;61.53
7524;BME280;3803;51.666;7.630;2023-07-13T01:34:43;100828.84;;;16.50;61.55
7524;BME280;3803;51.666;7.630;2023-07-13T01:35:05;100828.00;;;16.49;61.37
7524;BME280;3803;51.666;7.630;2023-07-13T01:35:25;100833.25;;;16.55;61.27
7524;BME280;3803;51.666;7.630;2023-07-13T01:35:47;100839.44;;;16.61;61.22
7524;BME280;3803;51.666;7.630;2023-07-13T01:36:11;100830.63;;;16.55;60.85
7524;BME280;3803;51.666;7.630;2023-07-13T01:36:32;100832.38;;;16.52;60.95
7524;BME280;3803;51.666;7.630;2023-07-13T01:36:53;100831.50;;;16.54;61.02
7524;BME280;3803;51.666;7.630;2023-07-13T01:37:14;100832.38;;;16.52;61.01
7524;BME280;3803;51.666;7.630;2023-07-13T01:37:35;100835.00;;;16.52;60.97
7524;BME280;3803;51.666;7.630;2023-07-13T01:37:56;100841.19;;;16.54;61.03
7524;BME280;3803;51.666;7.630;2023-07-13T01:38:19;100854.34;;;16.55;60.88
7524;BME280;3803;51.666;7.630;2023-07-13T01:38:40;100838.53;;;16.49;60.95
7524;BME280;3803;51.666;7.630;2023-07-13T01:39:03;100846.44;;;16.54;60.96
7524;BME280;3803;51.666;7.630;2023-07-13T01:39:23;100844.66;;;16.50;61.05
7524;BME280;3803;51.666;7.630;2023-07-13T01:39:44;100838.50;;;16.46;61.06
7524;BME280;3803;51.666;7.630;2023-07-13T01:40:05;100834.97;;;16.44;60.89
7524;BME280;3803;51.666;7.630;2023-07-13T01:40:27;100847.31;;;16.48;61.10
7524;BME280;3803;51.666;7.630;2023-07-13T01:40:47;100842.00;;;16.43;60.85
7524;BME280;3803;51.666;7.630;2023-07-13T01:41:08;100839.34;;;16.40;61.01
7524;BME280;3803;51.666;7.630;2023-07-13T01:41:28;100854.31;;;16.44;60.91
7524;BME280;3803;51.666;7.630;2023-07-13T01:41:49;100851.69;;;16.48;60.89
7524;BME280;3803;51.666;7.630;2023-07-13T01:42:10;100849.00;;;16.40;60.97
7524;BME280;3803;51.666;7.630;2023-07-13T01:42:31;100851.69;;;16.44;61.30
7524;BME280;3803;51.666;7.630;2023-07-13T01:42:52;100850.81;;;16.46;61.31
7524;BME280;3803;51.666;7.630;2023-07-13T01:43:14;100856.94;;;16.44;60.95
7524;BME280;3803;51.666;7.630;2023-07-13T01:43:35;100849.88;;;16.43;61.16
7524;BME280;3803;51.666;7.630;2023-07-13T01:43:55;100851.69;;;16.44;60.97
7524;BME280;3803;51.666;7.630;2023-07-13T01:44:16;100849.03;;;16.43;61.07
7524;BME280;3803;51.666;7.630;2023-07-13T01:44:37;100842.88;;;16.42;61.02
7524;BME280;3803;51.666;7.630;2023-07-13T01:44:57;100841.97;;;16.36;60.96
7524;BME280;3803;51.666;7.630;2023-07-13T01:45:18;100839.34;;;16.40;61.01
7524;BME280;3803;51.666;7.630;2023-07-13T01:45:38;100842.00;;;16.42;61.08
7524;BME280;3803;51.666;7.630;2023-07-13T01:45:59;100842.88;;;16.39;61.05
7524;BME280;3803;51.666;7.630;2023-07-13T01:46:20;100844.63;;;16.43;61.11
7524;BME280;3803;51.666;7.630;2023-07-13T01:46:41;100841.97;;;16.40;61.02
7524;BME280;3803;51.666;7.630;2023-07-13T01:47:02;100835.81;;;16.35;60.91
7524;BME280;3803;51.666;7.630;2023-07-13T01:47:23;100841.06;;;16.35;61.00
7524;BME280;3803;51.666;7.630;2023-07-13T01:47:44;100832.28;;;16.33;61.07
7524;BME280;3803;51.666;7.630;2023-07-13T01:48:05;100840.22;;;16.39;60.97
7524;BME280;3803;51.666;7.630;2023-07-13T01:48:27;100838.47;;;16.37;60.96
7524;BME280;3803;51.666;7.630;2023-07-13T01:48:47;100843.72;;;16.37;61.07
7524;BME280;3803;51.666;7.630;2023-07-13T01:49:08;100838.44;;;16.32;61.15
7524;BME280;3803;51.666;7.630;2023-07-13T01:49:29;100846.34;;;16.32;61.06
7524;BME280;3803;51.666;7.630;2023-07-13T01:49:50;100842.81;;;16.30;61.14
7524;BME280;3803;51.666;7.630;2023-07-13T01:50:12;100844.56;;;16.29;61.21
7524;BME280;3803;51.666;7.630;2023-07-13T01:50:34;100846.31;;;16.29;61.25
7524;BME280;3803;51.666;7.630;2023-07-13T01:50:54;100844.53;;;16.25;61.29
7524;BME280;3803;51.666;7.630;2023-07-13T01:51:17;100851.59;;;16.29;61.32
7524;BME280;3803;51.666;7.630;2023-07-13T01:51:39;100849.81;;;16.26;61.40
7524;BME280;3803;51.666;7.630;2023-07-13T01:51:59;100859.50;;;16.29;61.25
7524;BME280;3803;51.666;7.630;2023-07-13T01:52:21;100855.94;;;16.27;61.38
7524;BME280;3803;51.666;7.630;2023-07-13T01:52:41;100850.66;;;16.24;61.25
7524;BME280;3803;51.666;7.630;2023-07-13T01:53:03;100842.75;;;16.21;61.17
7524;BME280;3803;51.666;7.630;2023-07-13T01:53:23;100839.22;;;16.23;61.08
7524;BME280;3803;51.666;7.630;2023-07-13T01:53:44;100844.56;;;16.26;60.86
7524;BME280;3803;51.666;7.630;2023-07-13T01:54:05;100841.91;;;16.28;60.81
7524;BME280;3803;51.666;7.630;2023-07-13T01:54:26;100857.75;;;16.33;60.53
7524;BME280;3803;51.666;7.630;2023-07-13T01:54:47;100850.72;;;16.31;60.62
7524;BME280;3803;51.666;7.630;2023-07-13T01:55:11;100846.34;;;16.35;60.46
7524;BME280;3803;51.666;7.630;2023-07-13T01:55:32;100852.50;;;16.39;60.36
7524;BME280;3803;51.666;7.630;2023-07-13T01:55:53;100836.69;;;16.31;60.44
7524;BME280;3803;51.666;7.630;2023-07-13T01:56:14;100848.97;;;16.35;60.15
7524;BME280;3803;51.666;7.630;2023-07-13T01:56:35;100844.63;;;16.37;60.20
7524;BME280;3803;51.666;7.630;2023-07-13T01:56:56;100846.38;;;16.38;60.01
7524;BME280;3803;51.666;7.630;2023-07-13T01:57:16;100844.56;;;16.34;60.12
7524;BME280;3803;51.666;7.630;2023-07-13T01:57:37;100839.31;;;16.34;60.11
7524;BME280;3803;51.666;7.630;2023-07-13T01:57:58;100855.16;;;16.37;59.98
7524;BME280;3803;51.666;7.630;2023-07-13T01:58:18;100852.50;;;16.39;60.24
7524;BME280;3803;51.666;7.630;2023-07-13T01:58:39;100853.41;;;16.36;60.08
7524;BME280;3803;51.666;7.630;2023-07-13T01:59:00;100848.06;;;16.31;60.12
7524;BME280;3803;51.666;7.630;2023-07-13T01:59:21;100848.06;;;16.31;60.16
7524;BME280;3803;51.666;7.630;2023-07-13T01:59:42;100863.03;;;16.36;60.38
7524;BME280;3803;51.666;7.630;2023-07-13T02:00:04;100853.34;;;16.31;60.22
7524;BME280;3803;51.666;7.630;2023-07-13T02:00:36;100863.00;;;16.34;60.04
7524;BME280;3803;51.666;7.630;2023-07-13T02:02:00;100846.25;;;16.23;60.36
7524;BME280;3803;51.666;7.630;2023-07-13T02:02:21;100856.88;;;16.29;60.55
7524;BME280;3803;51.666;7.630;2023-07-13T02:02:42;100853.28;;;16.24;60.48